Time;durP1;ratioP1;P1;durP2;ratioP2;P2;SDS_P1;SDS_P2;PMS_P1;PMS_P2;Temp;Humidity;BMP_temperature;BMP_pressure;BME280_temperature;BME280_humidity;BME280_pressure;Samples;Min_cycle;Max_cycle;Signal;HPM_P1;HPM_P2
2023/10/11 00:00:34;;;;;;;9.73;3.50;;;18.70;90.80;;;;;;4954071;28;20080;-81
2023/10/11 00:03:05;;;;;;;6.03;3.20;;;18.70;90.80;;;;;;4955133;28;20109;-80
2023/10/11 00:05:40;;;;;;;4.85;2.67;;;18.70;90.90;;;;;;4959530;28;20461;-81
2023/10/11 00:08:09;;;;;;;5.93;3.33;;;18.70;91.00;;;;;;4961102;28;20395;-81
2023/10/11 00:10:43;;;;;;;7.13;3.40;;;18.70;91.00;;;;;;4945762;28;20096;-81
2023/10/11 00:13:12;;;;;;;6.80;3.80;;;18.70;91.00;;;;;;4979765;28;20077;-81
2023/10/11 00:15:38;;;;;;;4.68;2.78;;;18.60;91.10;;;;;;4961738;28;20157;-80
2023/10/11 00:18:03;;;;;;;5.45;3.03;;;18.60;91.10;;;;;;4957348;28;20046;-81
2023/10/11 00:21:10;;;;;;;7.05;4.50;;;18.60;91.20;;;;;;4959157;28;20034;-80
2023/10/11 00:23:25;;;;;;;10.02;3.45;;;18.60;91.20;;;;;;4979106;28;20439;-81
2023/10/11 00:25:52;;;;;;;18.15;4.47;;;18.60;91.20;;;;;;4962986;28;20035;-81
2023/10/11 00:28:24;;;;;;;13.43;3.33;;;18.60;91.30;;;;;;4961949;28;20034;-80
2023/10/11 00:30:57;;;;;;;9.95;3.80;;;18.60;91.40;;;;;;4945171;28;20042;-81
2023/10/11 00:33:23;;;;;;;6.60;3.75;;;18.50;91.40;;;;;;4944098;28;20065;-81
2023/10/11 00:35:50;;;;;;;4.78;2.28;;;18.50;91.40;;;;;;4958845;28;20049;-80
2023/10/11 00:38:27;;;;;;;11.82;4.13;;;18.50;91.40;;;;;;4948298;28;20092;-80
2023/10/11 00:43:49;;;;;;;9.55;3.25;;;18.50;91.50;;;;;;4975277;28;20240;-81
2023/10/11 00:46:18;;;;;;;;;;;18.40;91.50;;;;;;4962011;28;20041;-81
2023/10/11 00:49:04;;;;;;;7.15;3.40;;;18.40;91.50;;;;;;4983498;28;19916;-81
2023/10/11 00:51:30;;;;;;;6.90;3.65;;;18.40;91.60;;;;;;4980472;28;20045;-80
2023/10/11 00:53:57;;;;;;;10.50;3.72;;;18.30;91.60;;;;;;4963672;28;20041;-80
2023/10/11 00:56:26;;;;;;;7.20;3.00;;;18.30;91.70;;;;;;4972431;28;20479;-80
2023/10/11 00:58:52;;;;;;;5.70;2.60;;;18.30;91.70;;;;;;4960894;28;20080;-80
2023/10/11 01:01:17;;;;;;;10.73;2.60;;;18.20;91.80;;;;;;4978963;28;20038;-80
2023/10/11 01:03:44;;;;;;;4.78;2.58;;;18.30;91.80;;;;;;4946202;28;20033;-80
2023/10/11 01:06:10;;;;;;;8.00;3.40;;;18.30;91.80;;;;;;4960773;28;20045;-80
2023/10/11 01:08:40;;;;;;;11.85;3.40;;;18.30;91.80;;;;;;4964765;28;20386;-80
2023/10/11 01:11:08;;;;;;;6.13;2.72;;;18.30;91.80;;;;;;4965456;28;20041;-80
2023/10/11 01:13:33;;;;;;;12.98;3.10;;;18.30;91.80;;;;;;4961031;28;20556;-81
2023/10/11 01:15:59;;;;;;;11.90;3.65;;;18.20;91.90;;;;;;4962635;28;20030;-80
2023/10/11 01:18:27;;;;;;;3.92;2.20;;;18.20;91.80;;;;;;4972542;28;20660;-80
2023/10/11 01:20:52;;;;;;;5.63;2.97;;;18.20;91.90;;;;;;4963237;28;20034;-80
2023/10/11 01:23:18;;;;;;;5.78;2.60;;;18.20;92.00;;;;;;4975892;28;20384;-80
2023/10/11 01:25:43;;;;;;;4.40;2.08;;;18.20;92.10;;;;;;4980776;28;20570;-81
2023/10/11 01:28:09;;;;;;;9.05;3.70;;;18.20;92.40;;;;;;4974944;28;20044;-80
2023/10/11 01:30:34;;;;;;;9.70;2.20;;;18.10;92.20;;;;;;4957652;28;20493;-80
2023/10/11 01:33:00;;;;;;;5.68;2.70;;;18.20;92.20;;;;;;4959162;28;20043;-80
2023/10/11 01:35:35;;;;;;;7.65;3.28;;;18.10;92.20;;;;;;4962722;28;20042;-80
2023/10/11 01:38:04;;;;;;;9.47;3.03;;;18.10;92.20;;;;;;4978470;28;20031;-80
2023/10/11 01:40:31;;;;;;;7.30;3.50;;;18.00;92.40;;;;;;4955560;28;20174;-80
2023/10/11 01:42:57;;;;;;;10.07;3.17;;;18.10;92.40;;;;;;4969444;28;20026;-79
2023/10/11 01:45:25;;;;;;;8.30;3.22;;;18.10;92.30;;;;;;4972751;28;20038;-80
2023/10/11 01:47:51;;;;;;;9.85;4.20;;;18.10;92.40;;;;;;4965421;28;20429;-81
2023/10/11 01:50:17;;;;;;;6.00;2.95;;;18.10;92.50;;;;;;4973686;28;20124;-80
2023/10/11 01:52:43;;;;;;;10.30;4.40;;;18.10;92.50;;;;;;4959382;28;20394;-78
2023/10/11 01:55:13;;;;;;;9.02;3.65;;;18.00;92.50;;;;;;4964261;28;20207;-78
2023/10/11 01:57:39;;;;;;;10.07;3.65;;;18.00;92.60;;;;;;4958466;28;20557;-80
2023/10/11 02:00:13;;;;;;;11.38;3.78;;;18.10;92.60;;;;;;4976569;28;20091;-78
2023/10/11 02:02:44;;;;;;;9.75;3.10;;;18.00;92.70;;;;;;4961498;28;20048;-79
2023/10/11 02:05:11;;;;;;;11.00;3.90;;;18.00;92.80;;;;;;4949628;28;20128;-79
2023/10/11 02:07:39;;;;;;;7.85;3.10;;;17.90;92.80;;;;;;4972639;28;20054;-79
2023/10/11 02:10:12;;;;;;;9.35;3.45;;;18.00;92.90;;;;;;4972861;28;20520;-79
2023/10/11 02:12:46;;;;;;;5.90;2.65;;;18.00;92.90;;;;;;4975395;28;20148;-78
2023/10/11 02:15:29;;;;;;;7.45;3.45;;;18.00;93.00;;;;;;4972648;28;20032;-80
2023/10/11 02:17:58;;;;;;;14.15;4.18;;;17.90;93.00;;;;;;4976816;28;20034;-78
2023/10/11 02:20:25;;;;;;;7.65;2.83;;;17.90;93.00;;;;;;4976196;28;20141;-79
2023/10/11 02:22:55;;;;;;;13.63;3.28;;;17.90;93.10;;;;;;4972711;28;20157;-78
2023/10/11 02:25:24;;;;;;;11.90;4.45;;;17.80;93.10;;;;;;4957877;28;20041;-79
2023/10/11 02:27:50;;;;;;;11.10;3.88;;;17.80;93.10;;;;;;4974335;28;20398;-78
2023/10/11 02:30:20;;;;;;;10.27;4.07;;;17.80;93.20;;;;;;4961336;28;20046;-79
2023/10/11 02:32:47;;;;;;;10.10;4.43;;;17.80;93.20;;;;;;4967729;28;20034;-79
2023/10/11 02:35:13;;;;;;;11.02;4.60;;;17.80;93.10;;;;;;4954880;28;20051;-79
2023/10/11 02:37:39;;;;;;;11.23;4.07;;;17.70;93.30;;;;;;4957625;28;20038;-79
2023/10/11 02:40:09;;;;;;;11.80;4.10;;;17.70;93.30;;;;;;4972758;28;20034;-79
2023/10/11 02:42:37;;;;;;;7.32;3.03;;;17.70;93.40;;;;;;4954034;28;20554;-80
2023/10/11 02:45:07;;;;;;;9.45;3.65;;;17.70;93.40;;;;;;4961248;28;20040;-79
2023/10/11 02:47:37;;;;;;;5.82;2.75;;;17.70;93.30;;;;;;4938869;28;20034;-79
2023/10/11 02:50:07;;;;;;;9.95;4.15;;;17.60;93.60;;;;;;4972613;28;20034;-79
2023/10/11 02:52:36;;;;;;;6.82;3.00;;;17.70;93.40;;;;;;4975768;28;20049;-79
2023/10/11 02:55:21;;;;;;;11.85;4.05;;;17.70;93.50;;;;;;4956970;28;20030;-79
2023/10/11 02:57:47;;;;;;;12.65;4.10;;;17.60;93.50;;;;;;4976655;28;20134;-80
2023/10/11 03:00:21;;;;;;;13.07;3.95;;;17.60;93.50;;;;;;4968904;28;20470;-79
2023/10/11 03:02:53;;;;;;;7.25;3.20;;;17.60;93.60;;;;;;4975453;28;20394;-79
2023/10/11 03:05:27;;;;;;;7.20;3.38;;;17.60;93.50;;;;;;4954404;28;20038;-80
2023/10/11 03:07:55;;;;;;;4.63;2.55;;;17.60;93.40;;;;;;4973359;28;20068;-79
2023/10/11 03:10:22;;;;;;;8.15;3.60;;;17.50;93.60;;;;;;4974446;28;20039;-79
2023/10/11 03:12:51;;;;;;;6.07;3.30;;;17.50;93.50;;;;;;4955843;28;20097;-79
2023/10/11 03:15:19;;;;;;;11.73;3.20;;;17.50;93.50;;;;;;4956736;28;20053;-79
2023/10/11 03:17:46;;;;;;;8.07;3.08;;;17.50;93.50;;;;;;4949568;28;20042;-79
2023/10/11 03:20:36;;;;;;;11.45;4.30;;;17.60;93.60;;;;;;4972295;28;20549;-79
2023/10/11 03:23:04;;;;;;;4.43;2.97;;;17.50;93.50;;;;;;4955582;28;20041;-79
2023/10/11 03:25:32;;;;;;;6.53;2.63;;;17.50;93.50;;;;;;4971703;28;20050;-79
2023/10/11 03:27:57;;;;;;;8.07;3.28;;;17.50;93.50;;;;;;4955300;28;20096;-79
2023/10/11 03:30:24;;;;;;;6.32;3.35;;;17.50;93.40;;;;;;4971747;28;20042;-79
2023/10/11 03:32:50;;;;;;;11.10;4.10;;;17.40;93.50;;;;;;4971148;28;20117;-79
2023/10/11 03:35:18;;;;;;;7.45;3.70;;;17.40;93.50;;;;;;4958382;28;20034;-79
2023/10/11 03:37:57;;;;;;;7.70;3.30;;;17.30;93.40;;;;;;4969513;28;20033;-79
2023/10/11 03:40:54;;;;;;;10.20;3.72;;;17.40;93.40;;;;;;4957253;28;20034;-79
2023/10/11 03:43:19;;;;;;;5.10;2.38;;;17.40;93.50;;;;;;4960634;28;20038;-79
2023/10/11 03:45:49;;;;;;;7.85;3.33;;;17.40;93.50;;;;;;4957291;28;20461;-79
2023/10/11 03:48:16;;;;;;;10.65;3.90;;;17.40;93.40;;;;;;4972853;28;20196;-79
2023/10/11 03:50:47;;;;;;;6.78;2.85;;;17.40;93.70;;;;;;4959386;28;20423;-79
2023/10/11 03:53:14;;;;;;;7.97;2.80;;;17.30;93.40;;;;;;4972532;28;20158;-79
2023/10/11 03:55:46;;;;;;;9.70;3.90;;;17.40;93.40;;;;;;4975786;28;20034;-79
2023/10/11 03:58:22;;;;;;;14.48;2.45;;;17.30;93.40;;;;;;4963979;28;20026;-79
2023/10/11 04:00:48;;;;;;;7.88;3.50;;;17.30;93.30;;;;;;4964292;28;20054;-79
2023/10/11 04:03:17;;;;;;;10.30;4.07;;;17.30;93.30;;;;;;4960734;28;20569;-79
2023/10/11 04:05:47;;;;;;;7.50;3.30;;;17.30;93.30;;;;;;4958364;28;20022;-79
2023/10/11 04:08:19;;;;;;;6.63;3.72;;;17.20;93.40;;;;;;4961614;28;20038;-78
2023/10/11 04:10:49;;;;;;;8.07;4.03;;;17.30;93.40;;;;;;4956935;28;20031;-79
2023/10/11 04:13:15;;;;;;;6.15;2.80;;;17.30;93.30;;;;;;4964322;28;20105;-78
2023/10/11 04:15:49;;;;;;;3.33;2.20;;;17.30;93.20;;;;;;4959981;28;20475;-79
2023/10/11 04:18:20;;;;;;;9.18;3.80;;;17.30;93.30;;;;;;4956240;28;20458;-79
2023/10/11 04:21:26;;;;;;;11.27;3.55;;;17.30;93.30;;;;;;4975106;28;20481;-79
2023/10/11 04:23:35;;;;;;;10.60;4.30;;;17.20;93.20;;;;;;4975931;28;20030;-78
2023/10/11 04:26:08;;;;;;;10.82;3.70;;;17.20;93.20;;;;;;4959783;28;20034;-78
2023/10/11 04:28:34;;;;;;;9.25;3.17;;;17.20;93.20;;;;;;4979455;28;20114;-79
2023/10/11 04:31:54;;;;;;;5.20;2.20;;;17.20;93.20;;;;;;4963302;28;20112;-78
2023/10/11 04:33:50;;;;;;;10.52;3.72;;;17.20;93.20;;;;;;4965650;28;20030;-78
2023/10/11 04:36:20;;;;;;;9.50;3.90;;;17.20;93.10;;;;;;4972363;28;20578;-78
2023/10/11 04:38:49;;;;;;;10.35;3.80;;;17.20;93.20;;;;;;4962612;28;20506;-78
2023/10/11 04:41:19;;;;;;;9.27;4.20;;;17.20;93.20;;;;;;4957603;28;20517;-79
2023/10/11 04:43:51;;;;;;;8.63;2.70;;;17.20;93.10;;;;;;4961418;28;20050;-78
2023/10/11 04:46:18;;;;;;;9.02;3.90;;;17.20;93.10;;;;;;4974616;28;20411;-78
2023/10/11 04:48:44;;;;;;;9.05;2.40;;;17.20;93.00;;;;;;4957286;28;20651;-78
2023/10/11 04:53:54;;;;;;;7.43;3.28;;;17.10;93.10;;;;;;4979438;28;20057;-78
2023/10/11 04:59:08;;;;;;;5.63;2.60;;;17.20;93.00;;;;;;4981375;28;20038;-79
2023/10/11 05:04:15;;;;;;;12.38;4.30;;;17.10;92.90;;;;;;4967718;28;20087;-78
2023/10/11 05:06:41;;;;;;;10.30;4.45;;;17.10;92.80;;;;;;4960673;28;20030;-78
2023/10/11 05:11:46;;;;;;;12.93;3.72;;;17.10;92.90;;;;;;4956917;28;20533;-78
2023/10/11 05:14:30;;;;;;;11.35;4.13;;;17.10;92.90;;;;;;4961840;28;20026;-79
2023/10/11 05:16:59;;;;;;;8.18;3.30;;;17.10;92.80;;;;;;4956161;28;20615;-78
2023/10/11 05:19:27;;;;;;;11.15;3.08;;;17.10;92.70;;;;;;4965073;28;20033;-78
2023/10/11 05:21:53;;;;;;;8.45;3.60;;;17.10;92.70;;;;;;4975927;28;20529;-79
2023/10/11 05:27:25;;;;;;;7.50;3.67;;;17.00;92.90;;;;;;4962261;28;20057;-78
2023/10/11 05:30:33;;;;;;;5.55;2.55;;;17.00;92.80;;;;;;4979631;28;20429;-78
2023/10/11 05:32:41;;;;;;;9.68;3.78;;;17.10;92.70;;;;;;4973298;28;20638;-78
2023/10/11 05:51:31;;;;;;;6.63;3.72;;;17.00;92.50;;;;;;4975173;28;20080;-78
2023/10/11 05:53:59;;;;;;;9.70;3.60;;;17.10;92.50;;;;;;4973009;28;20465;-78
2023/10/11 05:56:25;;;;;;;8.70;3.13;;;17.00;92.40;;;;;;4970663;28;20034;-78
2023/10/11 05:58:53;;;;;;;8.52;3.58;;;17.00;92.50;;;;;;4990127;28;20048;-78
2023/10/11 06:01:21;;;;;;;7.82;2.85;;;17.00;92.50;;;;;;4966742;28;20038;-78
2023/10/11 06:03:48;;;;;;;6.60;2.88;;;17.00;92.40;;;;;;4970740;28;20463;-79
2023/10/11 06:06:23;;;;;;;3.95;2.30;;;17.00;92.30;;;;;;4975007;28;20034;-78
2023/10/11 06:08:52;;;;;;;10.23;3.22;;;17.10;92.30;;;;;;4958836;28;20521;-78
2023/10/11 06:11:19;;;;;;;3.22;2.70;;;17.10;92.20;;;;;;4954893;28;20033;-78
2023/10/11 06:13:46;;;;;;;10.98;4.43;;;17.20;92.10;;;;;;4969061;28;20733;-78
2023/10/11 06:16:14;;;;;;;7.93;3.08;;;17.20;92.10;;;;;;4975135;28;20026;-79
2023/10/11 06:18:39;;;;;;;34.80;4.50;;;17.20;92.10;;;;;;4976450;28;20768;-78
2023/10/11 06:23:56;;;;;;;9.00;3.80;;;17.20;92.10;;;;;;4972914;28;20033;-79
2023/10/11 06:27:53;;;;;;;3.70;2.53;;;17.20;92.10;;;;;;4974869;28;20045;-80
2023/10/11 06:29:08;;;;;;;10.00;3.22;;;17.20;92.10;;;;;;4971761;28;20041;-79
2023/10/11 06:31:39;;;;;;;7.10;2.47;;;17.20;91.90;;;;;;4974306;28;20065;-79
2023/10/11 06:34:15;;;;;;;5.70;2.25;;;17.30;91.80;;;;;;4977478;28;20030;-79
2023/10/11 06:36:42;;;;;;;7.20;2.47;;;17.30;91.70;;;;;;4957543;28;20042;-79
2023/10/11 06:42:21;;;;;;;9.73;2.75;;;17.40;91.70;;;;;;4962754;28;20033;-79
2023/10/11 06:45:00;;;;;;;14.07;3.08;;;17.40;91.80;;;;;;4976113;28;20036;-79
2023/10/11 06:47:35;;;;;;;6.13;3.33;;;17.40;91.70;;;;;;4951885;28;20080;-80
2023/10/11 06:50:10;;;;;;;7.75;3.08;;;17.40;91.80;;;;;;4958848;28;20058;-79
2023/10/11 06:52:36;;;;;;;3.60;1.73;;;17.50;91.70;;;;;;4961329;28;20045;-78
2023/10/11 06:55:14;;;;;;;4.13;2.40;;;17.50;91.60;;;;;;4959302;28;20041;-79
2023/10/11 06:57:54;;;;;;;5.50;2.53;;;17.50;91.60;;;;;;4978476;28;20045;-80
2023/10/11 07:00:21;;;;;;;7.50;2.45;;;17.60;91.60;;;;;;4974150;28;20030;-80
2023/10/11 07:02:55;;;;;;;5.30;2.05;;;17.60;91.50;;;;;;4955661;28;20025;-79
2023/10/11 07:05:25;;;;;;;9.85;3.60;;;17.70;91.40;;;;;;4959356;28;20042;-79
2023/10/11 07:07:52;;;;;;;8.70;3.30;;;17.70;91.40;;;;;;4957132;28;20034;-80
2023/10/11 07:10:32;;;;;;;11.18;3.88;;;17.90;91.50;;;;;;4954219;28;20046;-79
2023/10/11 07:13:05;;;;;;;9.48;2.40;;;17.80;91.40;;;;;;4963705;28;20494;-78
2023/10/11 07:15:47;;;;;;;4.43;2.42;;;17.80;91.40;;;;;;4976447;28;20394;-79
2023/10/11 07:18:25;;;;;;;3.72;2.25;;;17.80;91.30;;;;;;4972297;28;20376;-79
2023/10/11 07:20:58;;;;;;;8.30;2.95;;;17.90;91.20;;;;;;4957503;28;20035;-79
2023/10/11 07:23:24;;;;;;;7.15;2.55;;;18.00;91.10;;;;;;4971596;28;20031;-80
2023/10/11 07:26:23;;;;;;;9.20;3.20;;;18.00;91.10;;;;;;4973337;28;20026;-79
2023/10/11 07:28:38;;;;;;;5.95;2.03;;;18.10;91.10;;;;;;4963011;28;20030;-79
2023/10/11 07:31:04;;;;;;;7.68;2.50;;;18.10;91.10;;;;;;4962214;28;20049;-80
2023/10/11 07:33:31;;;;;;;4.68;2.40;;;18.20;91.00;;;;;;4973532;28;20038;-79
2023/10/11 07:35:59;;;;;;;5.50;2.03;;;18.20;90.80;;;;;;4975030;28;20498;-80
2023/10/11 07:38:32;;;;;;;5.82;2.50;;;18.30;90.90;;;;;;4956411;28;20486;-79
2023/10/11 07:41:17;;;;;;;8.05;3.55;;;18.30;90.80;;;;;;4958831;28;20602;-79
2023/10/11 07:43:45;;;;;;;6.60;2.78;;;18.40;90.70;;;;;;4966068;28;20483;-80
2023/10/11 07:46:11;;;;;;;4.45;2.05;;;18.50;90.70;;;;;;4976337;28;20525;-79
2023/10/11 07:48:39;;;;;;;4.95;1.42;;;18.70;90.60;;;;;;4958057;28;20053;-79
2023/10/11 07:51:09;;;;;;;5.53;2.25;;;18.70;90.70;;;;;;4953359;28;20097;-79
2023/10/11 07:53:40;;;;;;;7.38;2.03;;;18.70;90.50;;;;;;4957437;28;20042;-80
2023/10/11 07:56:05;;;;;;;9.70;2.97;;;18.80;90.50;;;;;;4954021;28;20022;-79
2023/10/11 07:58:34;;;;;;;8.02;2.78;;;18.90;90.40;;;;;;4972521;28;20034;-79
2023/10/11 08:01:05;;;;;;;6.32;3.85;;;18.90;90.30;;;;;;4969727;28;20034;-79
2023/10/11 08:03:37;;;;;;;8.15;3.60;;;19.00;90.30;;;;;;4954125;28;20410;-80
2023/10/11 08:06:08;;;;;;;4.15;2.78;;;19.10;90.10;;;;;;4960096;28;20050;-79
2023/10/11 08:08:37;;;;;;;4.85;2.67;;;19.20;90.00;;;;;;4973966;28;20035;-80
2023/10/11 08:11:22;;;;;;;7.13;3.08;;;19.20;90.20;;;;;;4943347;28;20090;-79
2023/10/11 08:14:00;;;;;;;7.85;2.28;;;19.40;90.10;;;;;;4954627;28;20026;-79
2023/10/11 08:16:27;;;;;;;8.48;2.83;;;19.40;90.10;;;;;;4967344;28;20505;-79
2023/10/11 08:18:53;;;;;;;10.15;2.80;;;19.50;90.00;;;;;;4945361;28;20043;-79
2023/10/11 08:21:18;;;;;;;8.15;2.50;;;19.70;90.10;;;;;;4948570;28;20093;-80
2023/10/11 08:23:44;;;;;;;5.63;2.15;;;19.70;89.60;;;;;;4973690;28;20030;-79
2023/10/11 08:26:14;;;;;;;11.13;2.80;;;19.80;89.40;;;;;;4957375;28;20529;-78
2023/10/11 08:28:49;;;;;;;3.70;2.05;;;19.80;89.70;;;;;;4940669;28;20076;-80
2023/10/11 08:31:35;;;;;;;7.97;2.47;;;19.80;89.40;;;;;;4968331;28;20514;-80
2023/10/11 08:34:01;;;;;;;7.20;3.17;;;20.00;89.20;;;;;;4956036;28;20084;-79
2023/10/11 08:36:30;;;;;;;6.70;2.28;;;20.10;89.10;;;;;;4954406;28;20074;-80
2023/10/11 08:38:56;;;;;;;6.95;2.90;;;20.20;88.00;;;;;;4980113;28;20411;-80
2023/10/11 08:41:22;;;;;;;9.85;3.40;;;20.20;88.00;;;;;;4974148;28;20185;-79
2023/10/11 08:43:54;;;;;;;8.77;2.55;;;20.30;88.00;;;;;;4959011;28;20827;-79
2023/10/11 08:46:19;;;;;;;6.25;3.13;;;20.40;88.20;;;;;;4976462;28;20069;-80
2023/10/11 08:48:49;;;;;;;7.30;2.70;;;20.40;87.70;;;;;;4977406;28;20157;-78
2023/10/11 08:51:22;;;;;;;8.02;3.40;;;20.60;87.60;;;;;;4977722;28;20066;-79
2023/10/11 08:53:54;;;;;;;6.20;1.83;;;20.50;88.10;;;;;;4961067;28;21094;-79
2023/10/11 08:56:22;;;;;;;9.98;3.05;;;20.60;87.80;;;;;;4957527;28;20041;-79
2023/10/11 08:58:51;;;;;;;7.70;2.60;;;20.60;87.60;;;;;;4963022;28;20538;-79
2023/10/11 09:01:17;;;;;;;4.03;2.60;;;20.80;87.40;;;;;;4978304;28;20587;-79
2023/10/11 09:03:42;;;;;;;9.98;4.13;;;20.90;87.40;;;;;;4957597;28;20038;-80
2023/10/11 09:06:21;;;;;;;7.03;3.70;;;21.00;87.00;;;;;;4977695;28;20030;-80
2023/10/11 09:08:47;;;;;;;7.95;2.58;;;21.00;87.20;;;;;;4977904;28;20043;-80
2023/10/11 09:11:28;;;;;;;5.78;3.10;;;21.10;87.10;;;;;;4977641;28;20040;-80
2023/10/11 09:14:09;;;;;;;8.57;3.63;;;21.10;87.20;;;;;;4974715;28;20030;-78
2023/10/11 09:16:34;;;;;;;6.43;2.42;;;21.30;86.90;;;;;;4973885;28;20034;-80
2023/10/11 09:19:05;;;;;;;6.45;2.85;;;21.40;86.20;;;;;;4959497;28;20053;-79
2023/10/11 09:21:35;;;;;;;8.13;3.03;;;21.40;86.60;;;;;;4957276;28;20113;-79
2023/10/11 09:24:01;;;;;;;7.43;3.08;;;21.40;86.50;;;;;;4977568;28;20125;-80
2023/10/11 09:26:37;;;;;;;5.57;3.20;;;21.50;87.00;;;;;;4965600;28;20538;-81
2023/10/11 09:29:03;;;;;;;5.75;3.08;;;21.60;87.30;;;;;;4976099;28;20084;-80
2023/10/11 09:31:33;;;;;;;10.95;4.05;;;21.80;86.80;;;;;;4962188;28;20034;-79
2023/10/11 09:34:07;;;;;;;7.15;3.33;;;22.00;85.90;;;;;;4978770;28;20039;-80
2023/10/11 09:36:33;;;;;;;8.68;3.25;;;22.00;85.90;;;;;;4977053;28;20030;-80
2023/10/11 09:38:58;;;;;;;6.68;4.25;;;22.10;85.80;;;;;;4974243;28;20110;-81
2023/10/11 09:41:28;;;;;;;11.43;3.95;;;22.20;86.00;;;;;;4960690;28;20125;-80
2023/10/11 09:43:57;;;;;;;7.22;2.92;;;22.10;86.10;;;;;;4976055;28;20042;-80
2023/10/11 09:46:28;;;;;;;8.85;4.15;;;22.20;85.20;;;;;;4973876;28;20026;-80
2023/10/11 09:48:56;;;;;;;9.15;2.67;;;22.40;85.40;;;;;;4941384;28;20041;-79
2023/10/11 09:51:24;;;;;;;7.63;2.13;;;22.50;85.20;;;;;;4959905;28;20376;-79
2023/10/11 09:53:50;;;;;;;12.63;3.33;;;22.60;85.40;;;;;;4974785;28;20137;-78
2023/10/11 09:56:29;;;;;;;11.10;3.75;;;22.60;85.10;;;;;;4978212;28;20482;-77
2023/10/11 09:59:24;;;;;;;5.05;2.50;;;22.60;85.70;;;;;;4973982;28;20440;-78
2023/10/11 10:02:12;;;;;;;4.50;1.88;;;22.70;84.10;;;;;;4958676;28;20474;-81
2023/10/11 10:04:51;;;;;;;5.95;2.75;;;22.90;84.50;;;;;;4968361;28;20140;-81
2023/10/11 10:07:32;;;;;;;4.82;2.50;;;23.00;84.20;;;;;;4991926;28;20109;-81
2023/10/11 10:10:01;;;;;;;11.80;3.35;;;22.90;84.80;;;;;;4975025;28;20037;-80
2023/10/11 10:12:34;;;;;;;11.23;3.20;;;23.10;84.80;;;;;;4977556;28;20101;-81
2023/10/11 10:15:13;;;;;;;9.05;3.40;;;23.30;84.50;;;;;;4956258;28;20042;-81
2023/10/11 10:17:57;;;;;;;9.68;3.75;;;23.30;84.60;;;;;;4977431;28;20029;-81
2023/10/11 10:20:49;;;;;;;6.15;2.88;;;23.40;83.20;;;;;;4948075;28;20042;-81
2023/10/11 10:23:14;;;;;;;11.18;2.83;;;23.60;82.90;;;;;;4989150;28;20029;-81
2023/10/11 10:25:47;;;;;;;9.70;3.92;;;23.80;82.50;;;;;;4986823;28;20030;-81
2023/10/11 10:31:19;;;;;;;9.68;4.55;;;23.80;82.10;;;;;;4995149;28;20042;-81
2023/10/11 10:33:51;;;;;;;9.60;3.38;;;23.90;82.30;;;;;;4980263;28;20071;-81
2023/10/11 10:36:28;;;;;;;10.70;3.28;;;23.80;83.00;;;;;;4945400;28;20367;-83
2023/10/11 10:39:00;;;;;;;6.97;2.92;;;23.80;82.50;;;;;;4973067;28;20022;-83
2023/10/11 10:41:32;;;;;;;6.32;2.75;;;23.90;81.80;;;;;;4992362;28;20219;-81
2023/10/11 10:44:09;;;;;;;9.20;3.75;;;24.10;81.40;;;;;;4962183;28;20090;-82
2023/10/11 10:46:35;;;;;;;8.95;3.70;;;24.00;81.70;;;;;;4967370;28;20034;-81
2023/10/11 10:49:03;;;;;;;6.70;2.80;;;24.10;80.40;;;;;;4964150;28;20097;-82
2023/10/11 10:51:36;;;;;;;12.57;3.55;;;24.20;80.80;;;;;;4981970;28;20073;-81
2023/10/11 10:54:12;;;;;;;10.77;3.70;;;24.30;81.00;;;;;;4965933;28;20061;-83
2023/10/11 10:56:46;;;;;;;9.32;3.40;;;24.40;81.30;;;;;;4974197;28;20035;-82
2023/10/11 10:59:14;;;;;;;11.18;3.85;;;24.30;81.50;;;;;;4962539;28;20026;-82
2023/10/11 11:01:40;;;;;;;15.13;4.32;;;24.50;81.80;;;;;;4971845;28;20129;-83
2023/10/11 11:04:07;;;;;;;6.03;3.05;;;24.60;81.00;;;;;;4964611;28;20058;-83
2023/10/11 11:06:49;;;;;;;24.35;3.65;;;24.50;80.70;;;;;;4978699;28;20023;-85
2023/10/11 11:09:19;;;;;;;16.15;3.65;;;24.60;80.20;;;;;;4967495;28;20429;-82
2023/10/11 11:11:55;;;;;;;10.73;3.50;;;24.80;80.10;;;;;;4964543;28;20031;-83
2023/10/11 11:14:20;;;;;;;8.40;3.30;;;24.80;79.50;;;;;;4978387;28;20034;-82
2023/10/11 11:16:58;;;;;;;8.82;3.95;;;24.80;79.90;;;;;;4950963;28;20039;-83
2023/10/11 11:19:27;;;;;;;12.13;5.13;;;25.00;79.70;;;;;;4959414;28;20114;-83
2023/10/11 11:22:11;;;;;;;13.40;3.75;;;24.90;80.40;;;;;;4977686;28;20053;-84
2023/10/11 11:24:41;;;;;;;11.40;3.70;;;24.90;80.40;;;;;;4963436;28;20454;-84
2023/10/11 11:27:32;;;;;;;15.68;4.20;;;24.90;81.60;;;;;;4960057;28;20030;-83
2023/10/11 11:30:02;;;;;;;11.32;3.03;;;25.10;80.90;;;;;;4977202;28;20058;-83
2023/10/11 11:32:37;;;;;;;10.32;3.28;;;25.30;80.00;;;;;;4977332;28;20076;-85
2023/10/11 11:35:31;;;;;;;6.93;3.08;;;25.10;80.10;;;;;;4943114;28;20045;-83
2023/10/11 11:38:05;;;;;;;9.63;3.80;;;25.30;80.90;;;;;;4962459;28;20033;-83
2023/10/11 11:40:36;;;;;;;13.65;3.85;;;25.40;81.10;;;;;;4957266;28;20034;-84
2023/10/11 11:43:03;;;;;;;13.57;4.00;;;25.60;80.50;;;;;;4942035;28;20046;-84
2023/10/11 11:45:34;;;;;;;10.68;3.40;;;25.80;80.30;;;;;;4943442;28;20108;-84
2023/10/11 11:48:00;;;;;;;10.32;4.47;;;25.70;80.20;;;;;;4972708;28;20098;-83
2023/10/11 11:50:37;;;;;;;10.10;3.25;;;25.90;79.70;;;;;;4971100;28;20042;-84
2023/10/11 11:53:04;;;;;;;14.40;3.60;;;26.10;79.60;;;;;;4974488;28;20645;-83
2023/10/11 11:55:34;;;;;;;13.18;3.60;;;25.90;79.70;;;;;;4977227;28;20050;-83
2023/10/11 11:57:59;;;;;;;19.35;4.30;;;26.00;79.60;;;;;;4970074;28;20065;-83
2023/10/11 12:02:55;;;;;;;13.02;4.22;;;26.00;79.70;;;;;;4973106;28;20030;-83
2023/10/11 12:05:21;;;;;;;11.20;3.88;;;26.00;79.80;;;;;;4955175;28;20045;-83
2023/10/11 12:07:49;;;;;;;13.35;2.83;;;26.10;80.50;;;;;;4968115;28;20034;-84
2023/10/11 12:10:24;;;;;;;11.88;4.00;;;26.30;80.20;;;;;;4957505;28;20038;-83
2023/10/11 12:12:52;;;;;;;11.00;3.37;;;26.00;81.00;;;;;;4974450;28;20050;-84
2023/10/11 12:15:18;;;;;;;9.77;3.65;;;26.00;80.80;;;;;;4944020;28;20181;-83
2023/10/11 12:17:44;;;;;;;19.38;5.43;;;26.30;80.10;;;;;;4952283;28;20114;-84
2023/10/11 12:20:15;;;;;;;16.25;3.83;;;26.10;79.80;;;;;;4977818;28;20030;-83
2023/10/11 12:22:44;;;;;;;11.85;3.22;;;26.30;79.40;;;;;;4957003;28;20114;-83
2023/10/11 12:25:10;;;;;;;16.17;4.63;;;26.60;78.70;;;;;;4975642;28;20034;-83
2023/10/11 12:27:40;;;;;;;12.65;4.47;;;26.60;78.60;;;;;;4975379;28;20031;-84
2023/10/11 12:30:19;;;;;;;18.40;4.75;;;26.40;79.20;;;;;;4978178;28;20034;-84
2023/10/11 12:32:47;;;;;;;11.45;3.08;;;26.20;80.80;;;;;;4944002;28;20060;-84
2023/10/11 12:35:13;;;;;;;14.65;4.28;;;26.00;80.90;;;;;;4970523;28;20086;-84
2023/10/11 12:37:40;;;;;;;30.45;4.78;;;26.30;81.40;;;;;;4974336;28;20041;-83
2023/10/11 12:40:13;;;;;;;13.55;4.57;;;26.30;80.30;;;;;;4964034;28;20030;-84
2023/10/11 12:42:42;;;;;;;10.40;4.38;;;26.30;80.50;;;;;;4961441;28;20031;-83
2023/10/11 12:45:08;;;;;;;14.23;4.78;;;26.70;79.00;;;;;;4959215;28;20152;-84
2023/10/11 12:47:36;;;;;;;15.52;4.00;;;26.70;79.00;;;;;;4976482;28;20077;-82
2023/10/11 12:50:03;;;;;;;8.07;2.47;;;26.50;80.10;;;;;;4974727;28;20057;-81
2023/10/11 12:52:30;;;;;;;16.90;4.75;;;26.70;79.20;;;;;;4972768;28;20033;-81
2023/10/11 12:54:56;;;;;;;12.02;4.00;;;26.90;79.20;;;;;;4956801;28;20041;-81
2023/10/11 12:57:23;;;;;;;13.43;4.07;;;26.80;79.20;;;;;;4966896;28;20037;-81
2023/10/11 12:59:49;;;;;;;8.95;3.30;;;26.60;79.30;;;;;;4977364;28;20035;-82
2023/10/11 13:02:21;;;;;;;11.35;3.25;;;26.60;79.60;;;;;;4960890;28;20470;-82
2023/10/11 13:04:47;;;;;;;19.08;3.88;;;26.50;80.20;;;;;;4945944;28;20045;-81
2023/10/11 13:07:15;;;;;;;9.98;2.88;;;26.80;78.80;;;;;;4927837;28;20027;-81
2023/10/11 13:09:41;;;;;;;14.00;3.72;;;26.90;79.00;;;;;;4960275;28;20569;-81
2023/10/11 13:12:17;;;;;;;16.33;4.13;;;26.80;78.50;;;;;;4976386;28;20037;-81
2023/10/11 13:14:43;;;;;;;10.32;3.00;;;26.80;78.80;;;;;;4961507;28;20025;-81
2023/10/11 13:17:15;;;;;;;14.50;3.85;;;26.90;79.30;;;;;;4977896;28;20053;-81
2023/10/11 13:19:43;;;;;;;11.32;3.15;;;26.70;79.30;;;;;;4976297;28;20054;-80
2023/10/11 13:22:09;;;;;;;6.70;2.90;;;26.80;78.90;;;;;;4975487;28;20035;-81
2023/10/11 13:24:35;;;;;;;11.68;4.13;;;26.60;79.30;;;;;;4978938;28;20439;-81
2023/10/11 13:27:03;;;;;;;8.68;2.90;;;26.60;79.30;;;;;;4990986;28;20077;-81
2023/10/11 13:29:29;;;;;;;11.60;2.95;;;26.70;79.00;;;;;;4974561;28;20113;-79
2023/10/11 13:31:56;;;;;;;11.35;3.13;;;26.70;79.60;;;;;;4957041;28;20109;-80
2023/10/11 13:34:24;;;;;;;11.93;3.63;;;26.60;79.30;;;;;;4956576;28;20034;-81
2023/10/11 13:36:50;;;;;;;13.25;3.70;;;26.60;79.30;;;;;;4963101;28;20041;-81
2023/10/11 13:39:28;;;;;;;12.68;4.03;;;26.50;80.60;;;;;;4960925;28;20085;-81
2023/10/11 13:41:58;;;;;;;10.18;3.35;;;26.40;80.20;;;;;;4976576;28;20057;-81
2023/10/11 13:44:25;;;;;;;11.02;4.47;;;26.30;80.40;;;;;;4970893;28;20122;-81